sensor_id;sensor_type;location;lat;lon;timestamp;temperature;humidity
44833;DHT22;30569;51.252;9.830;2024-03-07T00:00:13;5.00;99.90
44833;DHT22;30569;51.252;9.830;2024-03-07T00:02:48;5.00;99.90
44833;DHT22;30569;51.252;9.830;2024-03-07T00:05:15;4.70;99.90
44833;DHT22;30569;51.252;9.830;2024-03-07T00:07:41;4.60;99.90
44833;DHT22;30569;51.252;9.830;2024-03-07T00:10:08;4.80;99.90
44833;DHT22;30569;51.252;9.830;2024-03-07T00:12:37;4.90;99.90
44833;DHT22;30569;51.252;9.830;2024-03-07T00:15:10;4.90;99.90
44833;DHT22;30569;51.252;9.830;2024-03-07T00:17:37;4.80;99.90
44833;DHT22;30569;51.252;9.830;2024-03-07T00:20:03;4.80;99.90
44833;DHT22;30569;51.252;9.830;2024-03-07T00:22:30;4.40;99.90
44833;DHT22;30569;51.252;9.830;2024-03-07T00:24:56;4.60;99.90
44833;DHT22;30569;51.252;9.830;2024-03-07T00:27:23;4.40;99.90
44833;DHT22;30569;51.252;9.830;2024-03-07T00:29:49;4.30;99.90
44833;DHT22;30569;51.252;9.830;2024-03-07T00:32:24;4.30;99.90
44833;DHT22;30569;51.252;9.830;2024-03-07T00:34:50;4.30;99.90
44833;DHT22;30569;51.252;9.830;2024-03-07T00:37:16;4.30;99.90
44833;DHT22;30569;51.252;9.830;2024-03-07T00:39:42;4.40;99.90
44833;DHT22;30569;51.252;9.830;2024-03-07T00:42:08;4.30;99.90
44833;DHT22;30569;51.252;9.830;2024-03-07T00:44:33;4.00;99.90
44833;DHT22;30569;51.252;9.830;2024-03-07T00:47:02;4.00;99.90
44833;DHT22;30569;51.252;9.830;2024-03-07T00:49:28;3.70;99.90
44833;DHT22;30569;51.252;9.830;2024-03-07T00:51:54;3.60;99.90
44833;DHT22;30569;51.252;9.830;2024-03-07T00:54:19;3.40;99.90
44833;DHT22;30569;51.252;9.830;2024-03-07T00:56:45;3.40;99.90
44833;DHT22;30569;51.252;9.830;2024-03-07T00:59:14;3.30;99.90
44833;DHT22;30569;51.252;9.830;2024-03-07T01:01:40;3.30;99.90
44833;DHT22;30569;51.252;9.830;2024-03-07T01:04:07;3.20;99.90
44833;DHT22;30569;51.252;9.830;2024-03-07T01:06:33;3.10;99.90
44833;DHT22;30569;51.252;9.830;2024-03-07T01:08:59;2.80;99.90
44833;DHT22;30569;51.252;9.830;2024-03-07T01:11:25;3.40;99.90
44833;DHT22;30569;51.252;9.830;2024-03-07T01:13:50;2.90;99.90
44833;DHT22;30569;51.252;9.830;2024-03-07T01:16:16;2.80;99.90
44833;DHT22;30569;51.252;9.830;2024-03-07T01:18:42;2.80;99.90
44833;DHT22;30569;51.252;9.830;2024-03-07T01:21:07;2.70;99.90
44833;DHT22;30569;51.252;9.830;2024-03-07T01:23:34;2.50;99.90
44833;DHT22;30569;51.252;9.830;2024-03-07T01:25:59;2.50;99.90
44833;DHT22;30569;51.252;9.830;2024-03-07T01:28:28;2.70;99.90
44833;DHT22;30569;51.252;9.830;2024-03-07T01:30:56;2.30;99.90
44833;DHT22;30569;51.252;9.830;2024-03-07T01:33:23;2.50;99.90
44833;DHT22;30569;51.252;9.830;2024-03-07T01:35:48;2.30;99.90
44833;DHT22;30569;51.252;9.830;2024-03-07T01:38:15;2.30;99.90
44833;DHT22;30569;51.252;9.830;2024-03-07T01:40:41;2.10;99.90
44833;DHT22;30569;51.252;9.830;2024-03-07T01:43:08;2.10;99.90
44833;DHT22;30569;51.252;9.830;2024-03-07T01:45:34;2.10;99.90
44833;DHT22;30569;51.252;9.830;2024-03-07T01:48:03;2.10;99.90
44833;DHT22;30569;51.252;9.830;2024-03-07T01:50:29;2.10;99.90
44833;DHT22;30569;51.252;9.830;2024-03-07T01:52:55;2.60;99.90
44833;DHT22;30569;51.252;9.830;2024-03-07T01:55:22;2.10;99.90
44833;DHT22;30569;51.252;9.830;2024-03-07T01:57:48;2.10;99.90
44833;DHT22;30569;51.252;9.830;2024-03-07T02:00:14;2.20;99.90
44833;DHT22;30569;51.252;9.830;2024-03-07T02:02:40;2.00;99.90
44833;DHT22;30569;51.252;9.830;2024-03-07T02:05:06;1.90;99.90
44833;DHT22;30569;51.252;9.830;2024-03-07T02:07:32;2.10;99.90
44833;DHT22;30569;51.252;9.830;2024-03-07T02:10:02;2.10;99.90
44833;DHT22;30569;51.252;9.830;2024-03-07T02:12:32;2.00;99.90
44833;DHT22;30569;51.252;9.830;2024-03-07T02:14:58;1.80;99.90
44833;DHT22;30569;51.252;9.830;2024-03-07T02:17:27;1.60;99.90
44833;DHT22;30569;51.252;9.830;2024-03-07T02:19:52;1.60;99.90
44833;DHT22;30569;51.252;9.830;2024-03-07T02:22:18;1.90;99.90
44833;DHT22;30569;51.252;9.830;2024-03-07T02:24:44;1.90;99.90
44833;DHT22;30569;51.252;9.830;2024-03-07T02:29:37;2.40;99.90
44833;DHT22;30569;51.252;9.830;2024-03-07T02:32:02;2.20;99.90
44833;DHT22;30569;51.252;9.830;2024-03-07T02:34:28;2.40;99.90
44833;DHT22;30569;51.252;9.830;2024-03-07T02:36:54;2.60;99.90
44833;DHT22;30569;51.252;9.830;2024-03-07T02:39:20;2.70;99.90
44833;DHT22;30569;51.252;9.830;2024-03-07T02:41:50;2.70;99.90
44833;DHT22;30569;51.252;9.830;2024-03-07T02:44:16;2.80;99.90
44833;DHT22;30569;51.252;9.830;2024-03-07T02:46:42;2.80;99.90
44833;DHT22;30569;51.252;9.830;2024-03-07T02:49:07;2.80;99.90
44833;DHT22;30569;51.252;9.830;2024-03-07T02:51:33;3.00;99.90
44833;DHT22;30569;51.252;9.830;2024-03-07T02:56:24;3.10;99.90
44833;DHT22;30569;51.252;9.830;2024-03-07T02:58:51;3.20;99.90
44833;DHT22;30569;51.252;9.830;2024-03-07T03:03:43;3.40;99.90
44833;DHT22;30569;51.252;9.830;2024-03-07T03:06:09;3.60;99.90
44833;DHT22;30569;51.252;9.830;2024-03-07T03:08:35;3.50;99.90
44833;DHT22;30569;51.252;9.830;2024-03-07T03:11:01;3.60;99.90
44833;DHT22;30569;51.252;9.830;2024-03-07T03:15:53;4.20;99.90
44833;DHT22;30569;51.252;9.830;2024-03-07T03:18:21;3.80;99.90
44833;DHT22;30569;51.252;9.830;2024-03-07T03:20:47;3.80;99.90
44833;DHT22;30569;51.252;9.830;2024-03-07T03:23:13;3.90;99.90
44833;DHT22;30569;51.252;9.830;2024-03-07T03:25:40;3.90;99.90
44833;DHT22;30569;51.252;9.830;2024-03-07T03:28:06;4.00;99.90
44833;DHT22;30569;51.252;9.830;2024-03-07T03:30:32;4.00;99.90
44833;DHT22;30569;51.252;9.830;2024-03-07T03:32:58;4.00;99.90
44833;DHT22;30569;51.252;9.830;2024-03-07T03:35:24;4.50;99.90
44833;DHT22;30569;51.252;9.830;2024-03-07T03:37:50;4.20;99.90
44833;DHT22;30569;51.252;9.830;2024-03-07T03:40:15;4.20;99.90
44833;DHT22;30569;51.252;9.830;2024-03-07T03:42:42;4.10;99.90
44833;DHT22;30569;51.252;9.830;2024-03-07T03:45:09;4.10;99.90
44833;DHT22;30569;51.252;9.830;2024-03-07T03:47:36;4.20;99.90
44833;DHT22;30569;51.252;9.830;2024-03-07T03:50:05;4.20;99.90
44833;DHT22;30569;51.252;9.830;2024-03-07T03:52:32;4.30;99.90
44833;DHT22;30569;51.252;9.830;2024-03-07T03:57:25;4.30;99.90
44833;DHT22;30569;51.252;9.830;2024-03-07T03:59:50;4.30;99.90
44833;DHT22;30569;51.252;9.830;2024-03-07T04:02:16;4.30;99.90
44833;DHT22;30569;51.252;9.830;2024-03-07T04:04:42;4.30;99.90
44833;DHT22;30569;51.252;9.830;2024-03-07T04:07:08;4.40;99.90
44833;DHT22;30569;51.252;9.830;2024-03-07T04:09:33;4.40;99.90
44833;DHT22;30569;51.252;9.830;2024-03-07T04:11:59;4.50;99.90
44833;DHT22;30569;51.252;9.830;2024-03-07T04:14:26;4.50;99.90
44833;DHT22;30569;51.252;9.830;2024-03-07T04:16:51;4.60;99.90
44833;DHT22;30569;51.252;9.830;2024-03-07T04:19:17;4.60;99.90
44833;DHT22;30569;51.252;9.830;2024-03-07T04:21:46;4.60;99.90
44833;DHT22;30569;51.252;9.830;2024-03-07T04:24:11;4.70;99.90
44833;DHT22;30569;51.252;9.830;2024-03-07T04:26:37;4.70;99.90
44833;DHT22;30569;51.252;9.830;2024-03-07T04:29:03;4.60;99.90
44833;DHT22;30569;51.252;9.830;2024-03-07T04:31:29;4.70;99.90
44833;DHT22;30569;51.252;9.830;2024-03-07T04:33:54;4.40;99.90
44833;DHT22;30569;51.252;9.830;2024-03-07T04:36:20;4.40;99.90
44833;DHT22;30569;51.252;9.830;2024-03-07T04:38:45;4.30;99.90
44833;DHT22;30569;51.252;9.830;2024-03-07T04:41:11;4.10;99.90
44833;DHT22;30569;51.252;9.830;2024-03-07T04:43:37;3.80;99.90
44833;DHT22;30569;51.252;9.830;2024-03-07T04:46:03;3.80;99.90
44833;DHT22;30569;51.252;9.830;2024-03-07T04:48:30;3.80;99.90
44833;DHT22;30569;51.252;9.830;2024-03-07T04:50:57;4.00;99.90
44833;DHT22;30569;51.252;9.830;2024-03-07T04:53:23;4.10;99.90
44833;DHT22;30569;51.252;9.830;2024-03-07T04:55:49;4.30;99.90
44833;DHT22;30569;51.252;9.830;2024-03-07T04:58:14;4.60;99.90
44833;DHT22;30569;51.252;9.830;2024-03-07T05:00:40;4.60;99.90
44833;DHT22;30569;51.252;9.830;2024-03-07T05:03:05;4.40;99.90
44833;DHT22;30569;51.252;9.830;2024-03-07T05:05:31;4.30;99.90
44833;DHT22;30569;51.252;9.830;2024-03-07T05:07:57;4.30;99.90
44833;DHT22;30569;51.252;9.830;2024-03-07T05:10:22;4.50;99.90
44833;DHT22;30569;51.252;9.830;2024-03-07T05:12:48;4.50;99.90
44833;DHT22;30569;51.252;9.830;2024-03-07T05:15:13;4.30;99.90
44833;DHT22;30569;51.252;9.830;2024-03-07T05:17:39;4.30;99.90
44833;DHT22;30569;51.252;9.830;2024-03-07T05:20:07;4.10;99.90
44833;DHT22;30569;51.252;9.830;2024-03-07T05:22:36;4.20;99.90
44833;DHT22;30569;51.252;9.830;2024-03-07T05:25:06;3.70;99.90
44833;DHT22;30569;51.252;9.830;2024-03-07T05:27:32;3.70;99.90
44833;DHT22;30569;51.252;9.830;2024-03-07T05:29:59;3.80;99.90
44833;DHT22;30569;51.252;9.830;2024-03-07T05:32:26;3.80;99.90
44833;DHT22;30569;51.252;9.830;2024-03-07T05:34:52;3.90;99.90
44833;DHT22;30569;51.252;9.830;2024-03-07T05:37:21;3.90;99.90
44833;DHT22;30569;51.252;9.830;2024-03-07T05:39:48;3.90;99.90
44833;DHT22;30569;51.252;9.830;2024-03-07T05:42:13;4.20;99.90
44833;DHT22;30569;51.252;9.830;2024-03-07T05:44:43;4.40;99.90
44833;DHT22;30569;51.252;9.830;2024-03-07T05:47:09;4.50;99.90
44833;DHT22;30569;51.252;9.830;2024-03-07T05:49:35;4.60;99.90
44833;DHT22;30569;51.252;9.830;2024-03-07T05:52:02;4.80;99.90
44833;DHT22;30569;51.252;9.830;2024-03-07T05:54:28;5.00;99.90
44833;DHT22;30569;51.252;9.830;2024-03-07T05:56:55;5.00;99.90
44833;DHT22;30569;51.252;9.830;2024-03-07T05:59:20;5.00;99.90
44833;DHT22;30569;51.252;9.830;2024-03-07T06:01:46;5.10;99.90
44833;DHT22;30569;51.252;9.830;2024-03-07T06:09:07;5.30;99.90
44833;DHT22;30569;51.252;9.830;2024-03-07T06:11:39;5.40;99.90
44833;DHT22;30569;51.252;9.830;2024-03-07T06:14:08;5.40;99.90
44833;DHT22;30569;51.252;9.830;2024-03-07T06:16:36;5.50;99.90
44833;DHT22;30569;51.252;9.830;2024-03-07T06:19:02;5.40;99.90
44833;DHT22;30569;51.252;9.830;2024-03-07T06:21:29;5.30;99.90
44833;DHT22;30569;51.252;9.830;2024-03-07T06:23:56;5.40;99.90
44833;DHT22;30569;51.252;9.830;2024-03-07T06:26:36;5.40;99.90
44833;DHT22;30569;51.252;9.830;2024-03-07T06:29:19;5.50;99.90
44833;DHT22;30569;51.252;9.830;2024-03-07T06:31:45;5.30;99.90
44833;DHT22;30569;51.252;9.830;2024-03-07T06:34:14;5.40;99.90
44833;DHT22;30569;51.252;9.830;2024-03-07T06:36:39;5.40;99.90
44833;DHT22;30569;51.252;9.830;2024-03-07T06:39:08;5.50;99.90
44833;DHT22;30569;51.252;9.830;2024-03-07T06:41:36;5.40;99.90
44833;DHT22;30569;51.252;9.830;2024-03-07T06:44:02;5.20;99.90
44833;DHT22;30569;51.252;9.830;2024-03-07T06:46:28;5.20;99.90
44833;DHT22;30569;51.252;9.830;2024-03-07T06:48:54;5.20;99.90
44833;DHT22;30569;51.252;9.830;2024-03-07T06:51:21;5.10;99.90
44833;DHT22;30569;51.252;9.830;2024-03-07T06:53:48;5.20;99.90
44833;DHT22;30569;51.252;9.830;2024-03-07T06:56:15;5.20;99.90
44833;DHT22;30569;51.252;9.830;2024-03-07T06:58:42;5.30;99.90
44833;DHT22;30569;51.252;9.830;2024-03-07T07:01:08;5.30;99.90
44833;DHT22;30569;51.252;9.830;2024-03-07T07:03:36;5.40;99.90
44833;DHT22;30569;51.252;9.830;2024-03-07T07:06:03;5.30;99.90
44833;DHT22;30569;51.252;9.830;2024-03-07T07:08:31;5.40;99.90
44833;DHT22;30569;51.252;9.830;2024-03-07T07:10:57;5.40;99.90
44833;DHT22;30569;51.252;9.830;2024-03-07T07:13:23;5.40;99.90
44833;DHT22;30569;51.252;9.830;2024-03-07T07:15:49;5.50;99.90
44833;DHT22;30569;51.252;9.830;2024-03-07T07:18:15;5.50;99.90
44833;DHT22;30569;51.252;9.830;2024-03-07T07:20:41;5.60;99.90
44833;DHT22;30569;51.252;9.830;2024-03-07T07:23:06;5.50;99.90
44833;DHT22;30569;51.252;9.830;2024-03-07T07:25:32;5.60;99.90
44833;DHT22;30569;51.252;9.830;2024-03-07T07:27:58;5.80;99.90
44833;DHT22;30569;51.252;9.830;2024-03-07T07:30:24;5.70;99.90
44833;DHT22;30569;51.252;9.830;2024-03-07T07:32:50;5.50;99.90
44833;DHT22;30569;51.252;9.830;2024-03-07T07:35:16;5.40;99.90
44833;DHT22;30569;51.252;9.830;2024-03-07T07:37:47;5.10;99.90
44833;DHT22;30569;51.252;9.830;2024-03-07T07:40:18;4.80;99.90
44833;DHT22;30569;51.252;9.830;2024-03-07T07:42:47;4.90;99.90
44833;DHT22;30569;51.252;9.830;2024-03-07T07:45:15;4.90;99.90
44833;DHT22;30569;51.252;9.830;2024-03-07T07:47:42;4.70;99.90
44833;DHT22;30569;51.252;9.830;2024-03-07T07:50:09;4.70;99.90
44833;DHT22;30569;51.252;9.830;2024-03-07T07:52:47;4.40;99.90
44833;DHT22;30569;51.252;9.830;2024-03-07T07:55:14;4.60;99.90
44833;DHT22;30569;51.252;9.830;2024-03-07T07:57:41;4.60;99.90
44833;DHT22;30569;51.252;9.830;2024-03-07T08:00:09;4.70;99.90
44833;DHT22;30569;51.252;9.830;2024-03-07T08:02:35;5.00;99.90
44833;DHT22;30569;51.252;9.830;2024-03-07T08:05:01;5.10;99.90
44833;DHT22;30569;51.252;9.830;2024-03-07T08:07:27;5.10;99.90
44833;DHT22;30569;51.252;9.830;2024-03-07T08:09:52;5.20;99.90
44833;DHT22;30569;51.252;9.830;2024-03-07T08:12:18;5.20;99.90
44833;DHT22;30569;51.252;9.830;2024-03-07T08:14:43;5.50;99.90
44833;DHT22;30569;51.252;9.830;2024-03-07T08:17:10;5.60;99.90
44833;DHT22;30569;51.252;9.830;2024-03-07T08:19:36;6.80;99.90
44833;DHT22;30569;51.252;9.830;2024-03-07T08:22:02;5.50;99.90
44833;DHT22;30569;51.252;9.830;2024-03-07T08:24:27;5.30;99.90
44833;DHT22;30569;51.252;9.830;2024-03-07T08:26:53;5.40;99.90
44833;DHT22;30569;51.252;9.830;2024-03-07T08:29:19;5.70;99.90
44833;DHT22;30569;51.252;9.830;2024-03-07T08:31:45;5.60;99.90
44833;DHT22;30569;51.252;9.830;2024-03-07T08:34:10;5.70;99.90
44833;DHT22;30569;51.252;9.830;2024-03-07T08:36:36;5.70;99.90
44833;DHT22;30569;51.252;9.830;2024-03-07T08:39:04;5.70;99.90
44833;DHT22;30569;51.252;9.830;2024-03-07T08:41:29;5.70;99.90
44833;DHT22;30569;51.252;9.830;2024-03-07T08:43:56;5.80;99.90
44833;DHT22;30569;51.252;9.830;2024-03-07T08:46:22;5.80;99.90
44833;DHT22;30569;51.252;9.830;2024-03-07T08:48:48;5.80;99.90
44833;DHT22;30569;51.252;9.830;2024-03-07T08:51:15;5.80;99.90
44833;DHT22;30569;51.252;9.830;2024-03-07T08:53:41;5.90;99.90
44833;DHT22;30569;51.252;9.830;2024-03-07T08:56:06;5.80;99.90
44833;DHT22;30569;51.252;9.830;2024-03-07T08:58:32;5.70;99.90
44833;DHT22;30569;51.252;9.830;2024-03-07T09:00:58;5.80;99.90
44833;DHT22;30569;51.252;9.830;2024-03-07T09:03:24;5.90;99.90
44833;DHT22;30569;51.252;9.830;2024-03-07T09:05:51;5.80;99.90
44833;DHT22;30569;51.252;9.830;2024-03-07T09:08:17;5.60;99.90
44833;DHT22;30569;51.252;9.830;2024-03-07T09:10:43;5.80;99.90
44833;DHT22;30569;51.252;9.830;2024-03-07T09:13:09;6.10;99.90
44833;DHT22;30569;51.252;9.830;2024-03-07T09:15:35;6.10;99.90
44833;DHT22;30569;51.252;9.830;2024-03-07T09:18:02;6.10;99.90
44833;DHT22;30569;51.252;9.830;2024-03-07T09:20:28;6.10;99.90
44833;DHT22;30569;51.252;9.830;2024-03-07T09:22:56;5.80;99.90
44833;DHT22;30569;51.252;9.830;2024-03-07T09:25:22;5.90;99.90
44833;DHT22;30569;51.252;9.830;2024-03-07T09:27:48;5.70;99.90
44833;DHT22;30569;51.252;9.830;2024-03-07T09:30:14;5.80;99.90
44833;DHT22;30569;51.252;9.830;2024-03-07T09:32:42;5.90;99.90
44833;DHT22;30569;51.252;9.830;2024-03-07T09:35:09;6.10;99.90
44833;DHT22;30569;51.252;9.830;2024-03-07T09:37:39;6.10;99.90
44833;DHT22;30569;51.252;9.830;2024-03-07T09:40:06;6.30;99.90
44833;DHT22;30569;51.252;9.830;2024-03-07T09:42:32;6.20;99.90
44833;DHT22;30569;51.252;9.830;2024-03-07T09:45:02;6.30;99.90
44833;DHT22;30569;51.252;9.830;2024-03-07T09:47:29;6.40;99.90
44833;DHT22;30569;51.252;9.830;2024-03-07T09:49:56;6.40;99.90
44833;DHT22;30569;51.252;9.830;2024-03-07T09:52:22;6.60;99.90
44833;DHT22;30569;51.252;9.830;2024-03-07T09:54:49;7.00;99.90
44833;DHT22;30569;51.252;9.830;2024-03-07T09:57:14;7.20;99.90
44833;DHT22;30569;51.252;9.830;2024-03-07T09:59:42;7.30;99.90
44833;DHT22;30569;51.252;9.830;2024-03-07T10:02:09;7.60;99.90
44833;DHT22;30569;51.252;9.830;2024-03-07T10:04:48;7.50;99.90
44833;DHT22;30569;51.252;9.830;2024-03-07T10:07:17;7.60;99.90
44833;DHT22;30569;51.252;9.830;2024-03-07T10:09:44;7.30;99.90
44833;DHT22;30569;51.252;9.830;2024-03-07T10:12:10;7.30;99.90
44833;DHT22;30569;51.252;9.830;2024-03-07T10:14:38;7.30;99.90
44833;DHT22;30569;51.252;9.830;2024-03-07T10:17:05;7.50;99.90
44833;DHT22;30569;51.252;9.830;2024-03-07T10:19:30;7.50;99.90
44833;DHT22;30569;51.252;9.830;2024-03-07T10:21:56;7.80;99.90
44833;DHT22;30569;51.252;9.830;2024-03-07T10:24:27;7.90;99.90
44833;DHT22;30569;51.252;9.830;2024-03-07T10:26:53;7.90;99.90
44833;DHT22;30569;51.252;9.830;2024-03-07T10:29:22;7.90;99.90
44833;DHT22;30569;51.252;9.830;2024-03-07T10:31:49;8.00;99.90
44833;DHT22;30569;51.252;9.830;2024-03-07T10:34:15;7.90;99.90
44833;DHT22;30569;51.252;9.830;2024-03-07T10:36:43;8.10;99.90
44833;DHT22;30569;51.252;9.830;2024-03-07T10:39:08;7.80;99.90
44833;DHT22;30569;51.252;9.830;2024-03-07T10:41:46;7.80;99.90
44833;DHT22;30569;51.252;9.830;2024-03-07T10:44:24;7.70;99.90
44833;DHT22;30569;51.252;9.830;2024-03-07T10:46:55;7.80;99.90
44833;DHT22;30569;51.252;9.830;2024-03-07T10:49:21;8.00;99.90
44833;DHT22;30569;51.252;9.830;2024-03-07T10:52:17;7.90;99.90
44833;DHT22;30569;51.252;9.830;2024-03-07T11:00:56;8.10;99.90
44833;DHT22;30569;51.252;9.830;2024-03-07T11:03:23;8.00;99.90
44833;DHT22;30569;51.252;9.830;2024-03-07T11:05:50;8.00;98.40
44833;DHT22;30569;51.252;9.830;2024-03-07T11:08:16;7.90;99.10
44833;DHT22;30569;51.252;9.830;2024-03-07T11:10:42;7.90;98.30
44833;DHT22;30569;51.252;9.830;2024-03-07T11:13:10;8.00;97.20
44833;DHT22;30569;51.252;9.830;2024-03-07T11:15:39;8.30;98.70
44833;DHT22;30569;51.252;9.830;2024-03-07T11:18:05;8.90;97.80
44833;DHT22;30569;51.252;9.830;2024-03-07T11:20:37;8.80;96.60
44833;DHT22;30569;51.252;9.830;2024-03-07T11:23:29;9.00;96.70
44833;DHT22;30569;51.252;9.830;2024-03-07T11:26:04;9.40;94.60
44833;DHT22;30569;51.252;9.830;2024-03-07T11:28:40;9.30;92.70
44833;DHT22;30569;51.252;9.830;2024-03-07T11:31:25;9.50;94.00
44833;DHT22;30569;51.252;9.830;2024-03-07T11:36:44;8.50;94.10
44833;DHT22;30569;51.252;9.830;2024-03-07T11:39:45;8.40;94.70
44833;DHT22;30569;51.252;9.830;2024-03-07T11:42:28;8.20;93.90
44833;DHT22;30569;51.252;9.830;2024-03-07T11:44:56;8.20;93.60
44833;DHT22;30569;51.252;9.830;2024-03-07T11:47:23;8.40;93.80
44833;DHT22;30569;51.252;9.830;2024-03-07T11:49:52;8.90;95.90
44833;DHT22;30569;51.252;9.830;2024-03-07T11:52:19;8.90;93.90
44833;DHT22;30569;51.252;9.830;2024-03-07T11:54:44;8.70;93.80
44833;DHT22;30569;51.252;9.830;2024-03-07T11:57:17;8.90;94.00
44833;DHT22;30569;51.252;9.830;2024-03-07T11:59:45;8.70;92.80
44833;DHT22;30569;51.252;9.830;2024-03-07T12:02:12;8.70;92.40
44833;DHT22;30569;51.252;9.830;2024-03-07T12:04:40;8.00;92.70
44833;DHT22;30569;51.252;9.830;2024-03-07T12:07:06;8.00;93.20
44833;DHT22;30569;51.252;9.830;2024-03-07T12:09:38;8.10;93.10
44833;DHT22;30569;51.252;9.830;2024-03-07T12:12:05;8.00;92.80
44833;DHT22;30569;51.252;9.830;2024-03-07T12:14:31;8.00;92.00
44833;DHT22;30569;51.252;9.830;2024-03-07T12:19:23;7.80;91.50
44833;DHT22;30569;51.252;9.830;2024-03-07T12:21:49;7.80;93.00
44833;DHT22;30569;51.252;9.830;2024-03-07T12:24:15;7.80;92.60
44833;DHT22;30569;51.252;9.830;2024-03-07T12:26:41;7.80;93.20
44833;DHT22;30569;51.252;9.830;2024-03-07T12:29:11;7.90;92.00
44833;DHT22;30569;51.252;9.830;2024-03-07T12:31:41;8.30;92.30
44833;DHT22;30569;51.252;9.830;2024-03-07T12:34:10;7.50;92.60
44833;DHT22;30569;51.252;9.830;2024-03-07T12:36:36;7.60;93.10
44833;DHT22;30569;51.252;9.830;2024-03-07T12:39:25;7.80;92.20
44833;DHT22;30569;51.252;9.830;2024-03-07T12:41:57;7.80;92.10
44833;DHT22;30569;51.252;9.830;2024-03-07T12:44:23;7.90;91.80
44833;DHT22;30569;51.252;9.830;2024-03-07T12:46:51;7.80;91.90
44833;DHT22;30569;51.252;9.830;2024-03-07T12:49:24;8.10;92.20
44833;DHT22;30569;51.252;9.830;2024-03-07T12:51:55;8.20;93.30
44833;DHT22;30569;51.252;9.830;2024-03-07T12:54:22;7.80;92.80
44833;DHT22;30569;51.252;9.830;2024-03-07T12:56:48;7.80;92.60
44833;DHT22;30569;51.252;9.830;2024-03-07T12:59:17;7.70;92.20
44833;DHT22;30569;51.252;9.830;2024-03-07T13:01:44;7.60;92.30
44833;DHT22;30569;51.252;9.830;2024-03-07T13:04:13;7.80;93.00
44833;DHT22;30569;51.252;9.830;2024-03-07T13:06:39;7.80;92.90
44833;DHT22;30569;51.252;9.830;2024-03-07T13:09:09;7.80;92.40
44833;DHT22;30569;51.252;9.830;2024-03-07T13:11:40;7.90;93.60
44833;DHT22;30569;51.252;9.830;2024-03-07T13:14:13;8.50;92.10
44833;DHT22;30569;51.252;9.830;2024-03-07T13:16:39;8.60;91.90
44833;DHT22;30569;51.252;9.830;2024-03-07T13:19:05;8.20;92.40
44833;DHT22;30569;51.252;9.830;2024-03-07T13:21:31;8.20;92.20
44833;DHT22;30569;51.252;9.830;2024-03-07T13:23:57;7.80;92.20
44833;DHT22;30569;51.252;9.830;2024-03-07T13:26:23;7.90;93.40
44833;DHT22;30569;51.252;9.830;2024-03-07T13:28:51;8.10;92.10
44833;DHT22;30569;51.252;9.830;2024-03-07T13:31:19;8.00;91.70
44833;DHT22;30569;51.252;9.830;2024-03-07T13:33:45;7.70;91.10
44833;DHT22;30569;51.252;9.830;2024-03-07T13:36:11;7.70;91.30
44833;DHT22;30569;51.252;9.830;2024-03-07T13:38:37;7.80;91.70
44833;DHT22;30569;51.252;9.830;2024-03-07T13:41:04;8.00;91.60
44833;DHT22;30569;51.252;9.830;2024-03-07T13:43:33;7.70;91.60
44833;DHT22;30569;51.252;9.830;2024-03-07T13:45:59;7.80;92.00
44833;DHT22;30569;51.252;9.830;2024-03-07T13:48:25;8.20;92.10
44833;DHT22;30569;51.252;9.830;2024-03-07T13:50:51;8.60;90.60
44833;DHT22;30569;51.252;9.830;2024-03-07T13:53:19;9.10;91.60
44833;DHT22;30569;51.252;9.830;2024-03-07T14:09:43;8.60;90.50
44833;DHT22;30569;51.252;9.830;2024-03-07T14:12:34;8.30;92.50
44833;DHT22;30569;51.252;9.830;2024-03-07T14:26:45;8.60;90.00
44833;DHT22;30569;51.252;9.830;2024-03-07T14:29:40;8.50;89.40
44833;DHT22;30569;51.252;9.830;2024-03-07T14:32:10;8.30;91.00
44833;DHT22;30569;51.252;9.830;2024-03-07T14:35:21;7.90;90.10
44833;DHT22;30569;51.252;9.830;2024-03-07T14:37:49;7.90;90.60
44833;DHT22;30569;51.252;9.830;2024-03-07T14:40:17;8.20;90.60
44833;DHT22;30569;51.252;9.830;2024-03-07T14:42:47;8.20;90.30
44833;DHT22;30569;51.252;9.830;2024-03-07T14:45:24;8.50;90.30
44833;DHT22;30569;51.252;9.830;2024-03-07T14:47:51;8.60;88.80
44833;DHT22;30569;51.252;9.830;2024-03-07T14:50:18;8.40;88.60
44833;DHT22;30569;51.252;9.830;2024-03-07T14:52:46;7.70;89.30
44833;DHT22;30569;51.252;9.830;2024-03-07T14:55:12;7.60;90.60
44833;DHT22;30569;51.252;9.830;2024-03-07T14:57:44;7.70;90.80
44833;DHT22;30569;51.252;9.830;2024-03-07T15:00:12;7.90;92.30
44833;DHT22;30569;51.252;9.830;2024-03-07T15:02:52;8.00;90.30
44833;DHT22;30569;51.252;9.830;2024-03-07T15:05:23;7.50;91.00
44833;DHT22;30569;51.252;9.830;2024-03-07T15:07:50;7.70;91.20
44833;DHT22;30569;51.252;9.830;2024-03-07T15:10:29;7.30;92.10
44833;DHT22;30569;51.252;9.830;2024-03-07T15:12:56;7.30;91.70
44833;DHT22;30569;51.252;9.830;2024-03-07T15:15:21;7.50;91.80
44833;DHT22;30569;51.252;9.830;2024-03-07T15:17:50;7.60;91.90
44833;DHT22;30569;51.252;9.830;2024-03-07T15:20:16;7.30;91.40
44833;DHT22;30569;51.252;9.830;2024-03-07T15:22:56;7.40;91.90
44833;DHT22;30569;51.252;9.830;2024-03-07T15:25:22;7.50;91.10
44833;DHT22;30569;51.252;9.830;2024-03-07T15:27:53;7.70;91.00
44833;DHT22;30569;51.252;9.830;2024-03-07T15:30:22;7.60;91.10
44833;DHT22;30569;51.252;9.830;2024-03-07T15:32:51;7.50;91.50
44833;DHT22;30569;51.252;9.830;2024-03-07T15:35:17;7.20;91.40
44833;DHT22;30569;51.252;9.830;2024-03-07T15:37:49;7.20;92.40
44833;DHT22;30569;51.252;9.830;2024-03-07T15:40:16;7.40;90.50
44833;DHT22;30569;51.252;9.830;2024-03-07T15:42:42;7.10;90.50
44833;DHT22;30569;51.252;9.830;2024-03-07T15:45:15;7.10;91.00
44833;DHT22;30569;51.252;9.830;2024-03-07T15:47:45;7.10;90.70
44833;DHT22;30569;51.252;9.830;2024-03-07T15:50:11;7.10;91.20
44833;DHT22;30569;51.252;9.830;2024-03-07T15:52:41;7.00;91.20
44833;DHT22;30569;51.252;9.830;2024-03-07T15:55:10;7.10;91.20
44833;DHT22;30569;51.252;9.830;2024-03-07T15:57:46;7.00;91.80
44833;DHT22;30569;51.252;9.830;2024-03-07T16:00:14;7.00;91.70
44833;DHT22;30569;51.252;9.830;2024-03-07T16:02:55;7.40;91.70
44833;DHT22;30569;51.252;9.830;2024-03-07T16:05:22;7.50;91.20
44833;DHT22;30569;51.252;9.830;2024-03-07T16:07:52;7.50;92.10
44833;DHT22;30569;51.252;9.830;2024-03-07T16:10:19;7.30;91.50
44833;DHT22;30569;51.252;9.830;2024-03-07T16:12:46;7.00;92.30
44833;DHT22;30569;51.252;9.830;2024-03-07T16:15:12;6.90;90.70
44833;DHT22;30569;51.252;9.830;2024-03-07T16:17:38;6.60;91.30
44833;DHT22;30569;51.252;9.830;2024-03-07T16:20:04;6.70;91.40
44833;DHT22;30569;51.252;9.830;2024-03-07T16:22:46;6.20;92.40
44833;DHT22;30569;51.252;9.830;2024-03-07T16:25:14;6.30;91.90
44833;DHT22;30569;51.252;9.830;2024-03-07T16:27:46;6.40;92.40
44833;DHT22;30569;51.252;9.830;2024-03-07T16:30:15;6.20;92.30
44833;DHT22;30569;51.252;9.830;2024-03-07T16:32:42;6.10;92.50
44833;DHT22;30569;51.252;9.830;2024-03-07T16:35:13;6.00;92.80
44833;DHT22;30569;51.252;9.830;2024-03-07T16:37:45;5.90;92.10
44833;DHT22;30569;51.252;9.830;2024-03-07T16:40:12;5.70;92.80
44833;DHT22;30569;51.252;9.830;2024-03-07T16:42:39;5.50;92.90